sensor_id;sensor_type;location;lat;lon;timestamp;P1;durP1;ratioP1;P2;durP2;ratioP2
1613;SDS011;800;48.824;9.346;2024-01-30T00:01:25;11.67;;;7.93;;
1613;SDS011;800;48.824;9.346;2024-01-30T00:03:50;10.77;;;8.60;;
1613;SDS011;800;48.824;9.346;2024-01-30T00:06:18;11.57;;;8.50;;
1613;SDS011;800;48.824;9.346;2024-01-30T00:08:45;10.80;;;8.03;;
1613;SDS011;800;48.824;9.346;2024-01-30T00:11:13;10.43;;;7.43;;
1613;SDS011;800;48.824;9.346;2024-01-30T00:13:39;9.87;;;8.50;;
1613;SDS011;800;48.824;9.346;2024-01-30T00:16:05;9.97;;;8.13;;
1613;SDS011;800;48.824;9.346;2024-01-30T00:18:31;10.00;;;8.00;;
1613;SDS011;800;48.824;9.346;2024-01-30T00:20:56;11.00;;;8.57;;
1613;SDS011;800;48.824;9.346;2024-01-30T00:23:22;12.53;;;8.53;;
1613;SDS011;800;48.824;9.346;2024-01-30T00:25:47;11.33;;;8.93;;
1613;SDS011;800;48.824;9.346;2024-01-30T00:28:13;10.20;;;8.53;;
1613;SDS011;800;48.824;9.346;2024-01-30T00:30:38;9.90;;;8.60;;
1613;SDS011;800;48.824;9.346;2024-01-30T00:33:04;11.50;;;8.63;;
1613;SDS011;800;48.824;9.346;2024-01-30T00:35:29;14.73;;;7.80;;
1613;SDS011;800;48.824;9.346;2024-01-30T00:37:55;11.43;;;8.90;;
1613;SDS011;800;48.824;9.346;2024-01-30T00:40:20;8.83;;;7.90;;
1613;SDS011;800;48.824;9.346;2024-01-30T00:42:46;12.40;;;9.17;;
1613;SDS011;800;48.824;9.346;2024-01-30T00:45:15;10.50;;;7.70;;
1613;SDS011;800;48.824;9.346;2024-01-30T00:47:41;10.90;;;7.23;;
1613;SDS011;800;48.824;9.346;2024-01-30T00:50:07;11.60;;;8.50;;
1613;SDS011;800;48.824;9.346;2024-01-30T00:52:33;10.90;;;8.00;;
1613;SDS011;800;48.824;9.346;2024-01-30T00:55:00;12.10;;;8.30;;
1613;SDS011;800;48.824;9.346;2024-01-30T00:57:26;9.13;;;7.47;;
1613;SDS011;800;48.824;9.346;2024-01-30T00:59:52;12.37;;;8.53;;
1613;SDS011;800;48.824;9.346;2024-01-30T01:02:18;9.03;;;7.70;;
1613;SDS011;800;48.824;9.346;2024-01-30T01:04:44;11.13;;;8.57;;
1613;SDS011;800;48.824;9.346;2024-01-30T01:07:10;9.27;;;7.60;;
1613;SDS011;800;48.824;9.346;2024-01-30T01:09:36;11.90;;;7.80;;
1613;SDS011;800;48.824;9.346;2024-01-30T01:12:02;9.37;;;8.30;;
1613;SDS011;800;48.824;9.346;2024-01-30T01:14:28;9.80;;;7.97;;
1613;SDS011;800;48.824;9.346;2024-01-30T01:16:54;10.30;;;7.03;;
1613;SDS011;800;48.824;9.346;2024-01-30T01:19:20;12.27;;;8.40;;
1613;SDS011;800;48.824;9.346;2024-01-30T01:21:45;9.20;;;7.50;;
1613;SDS011;800;48.824;9.346;2024-01-30T01:24:11;11.00;;;7.53;;
1613;SDS011;800;48.824;9.346;2024-01-30T01:26:36;10.00;;;7.30;;
1613;SDS011;800;48.824;9.346;2024-01-30T01:29:02;11.20;;;8.53;;
1613;SDS011;800;48.824;9.346;2024-01-30T01:31:34;11.73;;;8.20;;
1613;SDS011;800;48.824;9.346;2024-01-30T01:34:09;11.73;;;8.00;;
1613;SDS011;800;48.824;9.346;2024-01-30T01:36:35;10.83;;;8.40;;
1613;SDS011;800;48.824;9.346;2024-01-30T01:39:01;11.33;;;8.33;;
1613;SDS011;800;48.824;9.346;2024-01-30T01:41:30;9.03;;;7.50;;
1613;SDS011;800;48.824;9.346;2024-01-30T01:43:59;9.70;;;7.07;;
1613;SDS011;800;48.824;9.346;2024-01-30T01:46:29;11.20;;;7.43;;
1613;SDS011;800;48.824;9.346;2024-01-30T01:48:57;8.10;;;7.10;;
1613;SDS011;800;48.824;9.346;2024-01-30T01:51:24;9.73;;;7.60;;
1613;SDS011;800;48.824;9.346;2024-01-30T01:53:53;12.20;;;7.33;;
1613;SDS011;800;48.824;9.346;2024-01-30T01:56:19;10.40;;;7.20;;
1613;SDS011;800;48.824;9.346;2024-01-30T01:58:45;8.53;;;6.87;;
1613;SDS011;800;48.824;9.346;2024-01-30T02:01:12;10.33;;;7.50;;
1613;SDS011;800;48.824;9.346;2024-01-30T02:03:39;8.57;;;7.67;;
1613;SDS011;800;48.824;9.346;2024-01-30T02:06:06;7.83;;;6.70;;
1613;SDS011;800;48.824;9.346;2024-01-30T02:08:31;7.30;;;6.60;;
1613;SDS011;800;48.824;9.346;2024-01-30T02:10:58;8.47;;;6.30;;
1613;SDS011;800;48.824;9.346;2024-01-30T02:13:24;8.63;;;6.73;;
1613;SDS011;800;48.824;9.346;2024-01-30T02:15:50;8.53;;;7.00;;
1613;SDS011;800;48.824;9.346;2024-01-30T02:18:16;7.90;;;6.50;;
1613;SDS011;800;48.824;9.346;2024-01-30T02:20:42;8.03;;;6.30;;
1613;SDS011;800;48.824;9.346;2024-01-30T02:23:09;10.93;;;6.97;;
1613;SDS011;800;48.824;9.346;2024-01-30T02:25:38;8.00;;;6.27;;
1613;SDS011;800;48.824;9.346;2024-01-30T02:28:11;9.43;;;6.60;;
1613;SDS011;800;48.824;9.346;2024-01-30T02:30:38;8.67;;;6.47;;
1613;SDS011;800;48.824;9.346;2024-01-30T02:33:04;9.40;;;7.07;;
1613;SDS011;800;48.824;9.346;2024-01-30T02:35:30;8.20;;;6.30;;
1613;SDS011;800;48.824;9.346;2024-01-30T02:37:55;8.93;;;7.00;;
1613;SDS011;800;48.824;9.346;2024-01-30T02:40:21;11.30;;;6.87;;
1613;SDS011;800;48.824;9.346;2024-01-30T02:42:46;8.43;;;5.90;;
1613;SDS011;800;48.824;9.346;2024-01-30T02:45:12;10.27;;;7.10;;
1613;SDS011;800;48.824;9.346;2024-01-30T02:47:38;8.97;;;6.67;;
1613;SDS011;800;48.824;9.346;2024-01-30T02:50:04;15.97;;;8.17;;
1613;SDS011;800;48.824;9.346;2024-01-30T02:52:30;8.00;;;6.33;;
1613;SDS011;800;48.824;9.346;2024-01-30T02:54:56;8.80;;;7.47;;
1613;SDS011;800;48.824;9.346;2024-01-30T02:57:21;9.83;;;6.90;;
1613;SDS011;800;48.824;9.346;2024-01-30T02:59:47;7.60;;;5.97;;
1613;SDS011;800;48.824;9.346;2024-01-30T03:02:12;11.37;;;5.83;;
1613;SDS011;800;48.824;9.346;2024-01-30T03:04:40;7.80;;;6.30;;
1613;SDS011;800;48.824;9.346;2024-01-30T03:07:06;6.67;;;6.00;;
1613;SDS011;800;48.824;9.346;2024-01-30T03:09:31;9.80;;;6.80;;
1613;SDS011;800;48.824;9.346;2024-01-30T03:11:57;7.60;;;6.43;;
1613;SDS011;800;48.824;9.346;2024-01-30T03:14:22;8.37;;;6.17;;
1613;SDS011;800;48.824;9.346;2024-01-30T03:16:48;6.60;;;5.90;;
1613;SDS011;800;48.824;9.346;2024-01-30T03:19:14;9.10;;;6.63;;
1613;SDS011;800;48.824;9.346;2024-01-30T03:21:39;9.10;;;5.30;;
1613;SDS011;800;48.824;9.346;2024-01-30T03:24:05;8.27;;;6.20;;
1613;SDS011;800;48.824;9.346;2024-01-30T03:26:30;10.43;;;7.03;;
1613;SDS011;800;48.824;9.346;2024-01-30T03:28:56;8.40;;;6.30;;
1613;SDS011;800;48.824;9.346;2024-01-30T03:31:22;7.33;;;6.07;;
1613;SDS011;800;48.824;9.346;2024-01-30T03:33:47;10.00;;;6.37;;
1613;SDS011;800;48.824;9.346;2024-01-30T03:36:14;8.63;;;6.00;;
1613;SDS011;800;48.824;9.346;2024-01-30T03:38:40;8.53;;;6.60;;
1613;SDS011;800;48.824;9.346;2024-01-30T03:41:09;7.70;;;6.10;;
1613;SDS011;800;48.824;9.346;2024-01-30T03:43:35;9.67;;;6.67;;
1613;SDS011;800;48.824;9.346;2024-01-30T03:46:01;6.80;;;5.10;;
1613;SDS011;800;48.824;9.346;2024-01-30T03:48:28;9.43;;;6.27;;
1613;SDS011;800;48.824;9.346;2024-01-30T03:50:54;9.27;;;6.40;;
1613;SDS011;800;48.824;9.346;2024-01-30T03:53:19;9.00;;;6.40;;
1613;SDS011;800;48.824;9.346;2024-01-30T03:55:45;10.00;;;6.73;;
1613;SDS011;800;48.824;9.346;2024-01-30T03:58:11;7.90;;;6.37;;
1613;SDS011;800;48.824;9.346;2024-01-30T04:00:36;9.07;;;5.93;;
1613;SDS011;800;48.824;9.346;2024-01-30T04:03:02;9.00;;;6.33;;
1613;SDS011;800;48.824;9.346;2024-01-30T04:05:28;8.20;;;6.93;;
1613;SDS011;800;48.824;9.346;2024-01-30T04:07:53;7.93;;;6.57;;
1613;SDS011;800;48.824;9.346;2024-01-30T04:10:19;8.60;;;5.60;;
1613;SDS011;800;48.824;9.346;2024-01-30T04:12:44;6.50;;;5.70;;
1613;SDS011;800;48.824;9.346;2024-01-30T04:15:10;7.40;;;5.73;;
1613;SDS011;800;48.824;9.346;2024-01-30T04:17:36;8.10;;;5.93;;
1613;SDS011;800;48.824;9.346;2024-01-30T04:20:01;7.33;;;6.10;;
1613;SDS011;800;48.824;9.346;2024-01-30T04:22:27;7.20;;;6.47;;
1613;SDS011;800;48.824;9.346;2024-01-30T04:24:53;8.30;;;6.40;;
1613;SDS011;800;48.824;9.346;2024-01-30T04:27:18;8.33;;;7.10;;
1613;SDS011;800;48.824;9.346;2024-01-30T04:29:44;8.43;;;6.93;;
1613;SDS011;800;48.824;9.346;2024-01-30T04:32:10;7.27;;;6.40;;
1613;SDS011;800;48.824;9.346;2024-01-30T04:34:36;7.10;;;5.17;;
1613;SDS011;800;48.824;9.346;2024-01-30T04:37:02;7.87;;;6.57;;
1613;SDS011;800;48.824;9.346;2024-01-30T04:39:28;9.10;;;6.47;;
1613;SDS011;800;48.824;9.346;2024-01-30T04:41:53;8.33;;;6.30;;
1613;SDS011;800;48.824;9.346;2024-01-30T04:44:19;7.70;;;6.07;;
1613;SDS011;800;48.824;9.346;2024-01-30T04:46:44;8.27;;;6.20;;
1613;SDS011;800;48.824;9.346;2024-01-30T04:49:10;12.10;;;6.60;;
1613;SDS011;800;48.824;9.346;2024-01-30T04:51:36;10.10;;;7.03;;
1613;SDS011;800;48.824;9.346;2024-01-30T04:54:01;11.27;;;7.07;;
1613;SDS011;800;48.824;9.346;2024-01-30T04:56:27;6.77;;;5.80;;
1613;SDS011;800;48.824;9.346;2024-01-30T04:58:53;10.00;;;6.73;;
1613;SDS011;800;48.824;9.346;2024-01-30T05:01:18;7.57;;;6.03;;
1613;SDS011;800;48.824;9.346;2024-01-30T05:03:44;8.50;;;6.23;;
1613;SDS011;800;48.824;9.346;2024-01-30T05:06:09;7.27;;;6.27;;
1613;SDS011;800;48.824;9.346;2024-01-30T05:08:35;9.13;;;6.47;;
1613;SDS011;800;48.824;9.346;2024-01-30T05:11:05;8.90;;;6.30;;
1613;SDS011;800;48.824;9.346;2024-01-30T05:13:30;9.27;;;6.27;;
1613;SDS011;800;48.824;9.346;2024-01-30T05:15:56;8.83;;;6.27;;
1613;SDS011;800;48.824;9.346;2024-01-30T05:18:22;10.47;;;6.80;;
1613;SDS011;800;48.824;9.346;2024-01-30T05:20:49;8.07;;;6.20;;
1613;SDS011;800;48.824;9.346;2024-01-30T05:23:15;8.20;;;6.10;;
1613;SDS011;800;48.824;9.346;2024-01-30T05:25:41;8.47;;;6.67;;
1613;SDS011;800;48.824;9.346;2024-01-30T05:28:07;9.00;;;6.80;;
1613;SDS011;800;48.824;9.346;2024-01-30T05:30:32;7.90;;;6.27;;
1613;SDS011;800;48.824;9.346;2024-01-30T05:32:58;9.10;;;6.87;;
1613;SDS011;800;48.824;9.346;2024-01-30T05:35:23;7.30;;;5.50;;
1613;SDS011;800;48.824;9.346;2024-01-30T05:37:49;8.27;;;6.33;;
1613;SDS011;800;48.824;9.346;2024-01-30T05:40:15;7.50;;;6.70;;
1613;SDS011;800;48.824;9.346;2024-01-30T05:42:41;8.43;;;5.20;;
1613;SDS011;800;48.824;9.346;2024-01-30T05:45:06;8.40;;;5.97;;
1613;SDS011;800;48.824;9.346;2024-01-30T05:47:33;7.80;;;5.73;;
1613;SDS011;800;48.824;9.346;2024-01-30T05:49:59;7.17;;;5.43;;
1613;SDS011;800;48.824;9.346;2024-01-30T05:52:24;7.70;;;6.50;;
1613;SDS011;800;48.824;9.346;2024-01-30T05:54:50;8.30;;;5.83;;
1613;SDS011;800;48.824;9.346;2024-01-30T05:57:16;7.77;;;5.90;;
1613;SDS011;800;48.824;9.346;2024-01-30T05:59:41;6.37;;;5.57;;
1613;SDS011;800;48.824;9.346;2024-01-30T06:02:07;7.30;;;6.23;;
1613;SDS011;800;48.824;9.346;2024-01-30T06:04:32;6.67;;;5.77;;
1613;SDS011;800;48.824;9.346;2024-01-30T06:06:58;6.40;;;5.80;;
1613;SDS011;800;48.824;9.346;2024-01-30T06:09:26;7.77;;;5.73;;
1613;SDS011;800;48.824;9.346;2024-01-30T06:11:52;7.50;;;6.17;;
1613;SDS011;800;48.824;9.346;2024-01-30T06:14:18;9.03;;;6.80;;
1613;SDS011;800;48.824;9.346;2024-01-30T06:16:43;7.33;;;6.20;;
1613;SDS011;800;48.824;9.346;2024-01-30T06:19:09;8.23;;;6.63;;
1613;SDS011;800;48.824;9.346;2024-01-30T06:21:34;11.13;;;6.70;;
1613;SDS011;800;48.824;9.346;2024-01-30T06:24:01;8.07;;;7.27;;
1613;SDS011;800;48.824;9.346;2024-01-30T06:26:27;11.37;;;8.33;;
1613;SDS011;800;48.824;9.346;2024-01-30T06:28:53;9.53;;;6.90;;
1613;SDS011;800;48.824;9.346;2024-01-30T06:31:18;8.27;;;7.30;;
1613;SDS011;800;48.824;9.346;2024-01-30T06:33:46;6.97;;;6.20;;
1613;SDS011;800;48.824;9.346;2024-01-30T06:36:12;7.90;;;6.17;;
1613;SDS011;800;48.824;9.346;2024-01-30T06:38:38;8.37;;;6.73;;
1613;SDS011;800;48.824;9.346;2024-01-30T06:41:03;7.87;;;6.90;;
1613;SDS011;800;48.824;9.346;2024-01-30T06:43:29;7.00;;;6.00;;
1613;SDS011;800;48.824;9.346;2024-01-30T06:45:54;8.67;;;7.23;;
1613;SDS011;800;48.824;9.346;2024-01-30T06:48:20;7.30;;;6.13;;
1613;SDS011;800;48.824;9.346;2024-01-30T06:50:45;8.30;;;6.00;;
1613;SDS011;800;48.824;9.346;2024-01-30T06:53:12;8.40;;;6.07;;
1613;SDS011;800;48.824;9.346;2024-01-30T06:55:38;7.90;;;6.60;;
1613;SDS011;800;48.824;9.346;2024-01-30T06:58:04;8.07;;;6.80;;
1613;SDS011;800;48.824;9.346;2024-01-30T07:00:29;9.70;;;6.37;;
1613;SDS011;800;48.824;9.346;2024-01-30T07:02:55;7.63;;;6.83;;
1613;SDS011;800;48.824;9.346;2024-01-30T07:05:21;7.27;;;6.50;;
1613;SDS011;800;48.824;9.346;2024-01-30T07:07:47;7.10;;;6.37;;
1613;SDS011;800;48.824;9.346;2024-01-30T07:10:12;8.57;;;6.40;;
1613;SDS011;800;48.824;9.346;2024-01-30T07:12:38;9.33;;;6.17;;
1613;SDS011;800;48.824;9.346;2024-01-30T07:15:04;7.60;;;6.80;;
1613;SDS011;800;48.824;9.346;2024-01-30T07:17:33;8.70;;;7.13;;
1613;SDS011;800;48.824;9.346;2024-01-30T07:19:59;10.33;;;7.30;;
1613;SDS011;800;48.824;9.346;2024-01-30T07:22:24;9.23;;;6.87;;
1613;SDS011;800;48.824;9.346;2024-01-30T07:24:50;8.63;;;7.77;;
1613;SDS011;800;48.824;9.346;2024-01-30T07:27:16;14.83;;;7.93;;
1613;SDS011;800;48.824;9.346;2024-01-30T07:29:43;9.93;;;6.57;;
1613;SDS011;800;48.824;9.346;2024-01-30T07:32:08;12.90;;;7.70;;
1613;SDS011;800;48.824;9.346;2024-01-30T07:34:34;8.53;;;7.10;;
1613;SDS011;800;48.824;9.346;2024-01-30T07:37:01;8.00;;;6.70;;
1613;SDS011;800;48.824;9.346;2024-01-30T07:39:26;7.20;;;6.50;;
1613;SDS011;800;48.824;9.346;2024-01-30T07:41:52;8.93;;;8.07;;
1613;SDS011;800;48.824;9.346;2024-01-30T07:44:18;7.37;;;6.67;;
1613;SDS011;800;48.824;9.346;2024-01-30T07:46:44;9.87;;;6.27;;
1613;SDS011;800;48.824;9.346;2024-01-30T07:49:09;7.90;;;6.73;;
1613;SDS011;800;48.824;9.346;2024-01-30T07:51:35;9.17;;;6.83;;
1613;SDS011;800;48.824;9.346;2024-01-30T07:54:00;7.87;;;7.00;;
1613;SDS011;800;48.824;9.346;2024-01-30T07:56:26;8.77;;;7.40;;
1613;SDS011;800;48.824;9.346;2024-01-30T07:58:52;6.90;;;6.20;;
1613;SDS011;800;48.824;9.346;2024-01-30T08:01:18;9.53;;;7.93;;
1613;SDS011;800;48.824;9.346;2024-01-30T08:03:44;7.70;;;6.90;;
1613;SDS011;800;48.824;9.346;2024-01-30T08:06:09;9.10;;;7.10;;
1613;SDS011;800;48.824;9.346;2024-01-30T08:08:35;8.00;;;7.13;;
1613;SDS011;800;48.824;9.346;2024-01-30T08:11:00;9.80;;;7.20;;
1613;SDS011;800;48.824;9.346;2024-01-30T08:13:26;8.67;;;7.20;;
1613;SDS011;800;48.824;9.346;2024-01-30T08:15:52;9.67;;;8.30;;
1613;SDS011;800;48.824;9.346;2024-01-30T08:18:17;10.43;;;8.07;;
1613;SDS011;800;48.824;9.346;2024-01-30T08:20:43;13.90;;;7.87;;
1613;SDS011;800;48.824;9.346;2024-01-30T08:23:08;10.60;;;8.03;;
1613;SDS011;800;48.824;9.346;2024-01-30T08:25:35;10.47;;;8.27;;
1613;SDS011;800;48.824;9.346;2024-01-30T08:28:01;11.67;;;7.20;;
1613;SDS011;800;48.824;9.346;2024-01-30T08:30:28;8.20;;;7.13;;
1613;SDS011;800;48.824;9.346;2024-01-30T08:32:53;7.93;;;6.40;;
1613;SDS011;800;48.824;9.346;2024-01-30T08:35:19;7.63;;;6.03;;
1613;SDS011;800;48.824;9.346;2024-01-30T08:37:44;7.40;;;5.70;;
1613;SDS011;800;48.824;9.346;2024-01-30T08:40:10;8.27;;;6.67;;
1613;SDS011;800;48.824;9.346;2024-01-30T08:42:36;8.50;;;6.57;;
1613;SDS011;800;48.824;9.346;2024-01-30T08:45:01;12.87;;;8.50;;
1613;SDS011;800;48.824;9.346;2024-01-30T08:47:29;7.33;;;6.63;;
1613;SDS011;800;48.824;9.346;2024-01-30T08:49:56;14.17;;;8.40;;
1613;SDS011;800;48.824;9.346;2024-01-30T08:52:21;22.27;;;10.37;;
1613;SDS011;800;48.824;9.346;2024-01-30T08:54:47;14.70;;;8.20;;
1613;SDS011;800;48.824;9.346;2024-01-30T08:57:12;12.87;;;8.10;;
1613;SDS011;800;48.824;9.346;2024-01-30T08:59:38;9.83;;;7.63;;
1613;SDS011;800;48.824;9.346;2024-01-30T09:02:03;11.60;;;8.50;;
1613;SDS011;800;48.824;9.346;2024-01-30T09:04:30;10.60;;;8.17;;
1613;SDS011;800;48.824;9.346;2024-01-30T09:06:55;11.37;;;8.23;;
1613;SDS011;800;48.824;9.346;2024-01-30T09:09:21;42.10;;;10.90;;
1613;SDS011;800;48.824;9.346;2024-01-30T09:11:47;82.43;;;25.03;;
1613;SDS011;800;48.824;9.346;2024-01-30T09:14:12;31.87;;;12.30;;
1613;SDS011;800;48.824;9.346;2024-01-30T09:16:38;12.53;;;7.80;;
1613;SDS011;800;48.824;9.346;2024-01-30T09:19:04;11.90;;;7.30;;
1613;SDS011;800;48.824;9.346;2024-01-30T09:21:29;8.37;;;6.90;;
1613;SDS011;800;48.824;9.346;2024-01-30T09:24:01;10.07;;;8.00;;
1613;SDS011;800;48.824;9.346;2024-01-30T09:26:28;10.60;;;7.37;;
1613;SDS011;800;48.824;9.346;2024-01-30T09:28:54;9.73;;;7.47;;
1613;SDS011;800;48.824;9.346;2024-01-30T09:31:20;10.47;;;7.00;;
1613;SDS011;800;48.824;9.346;2024-01-30T09:33:45;9.10;;;7.70;;
1613;SDS011;800;48.824;9.346;2024-01-30T09:36:13;8.13;;;7.33;;
1613;SDS011;800;48.824;9.346;2024-01-30T09:38:40;9.07;;;7.30;;
1613;SDS011;800;48.824;9.346;2024-01-30T09:41:07;11.87;;;7.97;;
1613;SDS011;800;48.824;9.346;2024-01-30T09:43:36;11.07;;;6.50;;
1613;SDS011;800;48.824;9.346;2024-01-30T09:46:03;10.60;;;7.60;;
1613;SDS011;800;48.824;9.346;2024-01-30T09:48:30;13.80;;;8.53;;
1613;SDS011;800;48.824;9.346;2024-01-30T09:50:57;16.10;;;7.30;;
1613;SDS011;800;48.824;9.346;2024-01-30T09:53:23;8.83;;;7.63;;
1613;SDS011;800;48.824;9.346;2024-01-30T09:55:50;9.37;;;7.40;;
1613;SDS011;800;48.824;9.346;2024-01-30T09:58:16;7.87;;;6.80;;
1613;SDS011;800;48.824;9.346;2024-01-30T10:00:42;8.43;;;6.70;;
1613;SDS011;800;48.824;9.346;2024-01-30T10:03:07;10.40;;;8.20;;
1613;SDS011;800;48.824;9.346;2024-01-30T10:05:34;9.60;;;8.57;;
1613;SDS011;800;48.824;9.346;2024-01-30T10:08:05;9.87;;;8.60;;
1613;SDS011;800;48.824;9.346;2024-01-30T10:10:33;11.83;;;9.10;;
1613;SDS011;800;48.824;9.346;2024-01-30T10:12:58;11.63;;;9.30;;
1613;SDS011;800;48.824;9.346;2024-01-30T10:15:24;12.30;;;9.17;;
1613;SDS011;800;48.824;9.346;2024-01-30T10:17:52;13.50;;;9.60;;
1613;SDS011;800;48.824;9.346;2024-01-30T10:20:18;10.57;;;8.30;;
1613;SDS011;800;48.824;9.346;2024-01-30T10:22:44;12.47;;;9.10;;
1613;SDS011;800;48.824;9.346;2024-01-30T10:25:11;9.93;;;8.93;;
1613;SDS011;800;48.824;9.346;2024-01-30T10:27:36;10.07;;;8.57;;
1613;SDS011;800;48.824;9.346;2024-01-30T10:30:05;12.20;;;8.20;;
1613;SDS011;800;48.824;9.346;2024-01-30T10:32:31;12.87;;;9.70;;
1613;SDS011;800;48.824;9.346;2024-01-30T10:34:56;11.50;;;8.17;;
1613;SDS011;800;48.824;9.346;2024-01-30T10:37:22;9.30;;;8.30;;
1613;SDS011;800;48.824;9.346;2024-01-30T10:39:50;100.47;;;20.43;;
1613;SDS011;800;48.824;9.346;2024-01-30T10:42:20;24.63;;;10.10;;
1613;SDS011;800;48.824;9.346;2024-01-30T10:45:08;15.80;;;8.87;;
1613;SDS011;800;48.824;9.346;2024-01-30T10:47:43;12.57;;;8.67;;
1613;SDS011;800;48.824;9.346;2024-01-30T10:50:14;11.47;;;9.87;;
1613;SDS011;800;48.824;9.346;2024-01-30T10:52:41;15.07;;;10.20;;
1613;SDS011;800;48.824;9.346;2024-01-30T10:55:07;12.80;;;9.40;;
1613;SDS011;800;48.824;9.346;2024-01-30T10:57:36;11.53;;;9.00;;
1613;SDS011;800;48.824;9.346;2024-01-30T11:00:09;10.90;;;9.10;;
1613;SDS011;800;48.824;9.346;2024-01-30T11:02:37;10.40;;;8.10;;
1613;SDS011;800;48.824;9.346;2024-01-30T11:05:04;12.37;;;8.47;;
1613;SDS011;800;48.824;9.346;2024-01-30T11:07:30;12.80;;;7.70;;
1613;SDS011;800;48.824;9.346;2024-01-30T11:12:28;9.00;;;7.40;;
1613;SDS011;800;48.824;9.346;2024-01-30T11:17:43;9.30;;;7.80;;
1613;SDS011;800;48.824;9.346;2024-01-30T11:20:21;13.93;;;9.10;;
1613;SDS011;800;48.824;9.346;2024-01-30T11:22:48;13.00;;;10.00;;
1613;SDS011;800;48.824;9.346;2024-01-30T11:25:17;17.00;;;10.20;;
1613;SDS011;800;48.824;9.346;2024-01-30T11:27:44;12.93;;;9.30;;
1613;SDS011;800;48.824;9.346;2024-01-30T11:30:10;13.63;;;9.00;;
1613;SDS011;800;48.824;9.346;2024-01-30T11:32:45;10.10;;;8.60;;
1613;SDS011;800;48.824;9.346;2024-01-30T11:35:11;12.30;;;8.60;;
1613;SDS011;800;48.824;9.346;2024-01-30T11:37:37;14.60;;;8.90;;
1613;SDS011;800;48.824;9.346;2024-01-30T11:40:06;10.07;;;6.77;;
1613;SDS011;800;48.824;9.346;2024-01-30T11:42:33;9.43;;;6.00;;
1613;SDS011;800;48.824;9.346;2024-01-30T11:45:01;18.23;;;10.20;;
1613;SDS011;800;48.824;9.346;2024-01-30T11:47:28;36.73;;;13.00;;
1613;SDS011;800;48.824;9.346;2024-01-30T11:49:54;25.50;;;11.00;;
1613;SDS011;800;48.824;9.346;2024-01-30T11:52:19;17.50;;;11.63;;
1613;SDS011;800;48.824;9.346;2024-01-30T11:54:45;23.40;;;10.83;;
1613;SDS011;800;48.824;9.346;2024-01-30T11:57:11;15.80;;;11.43;;
1613;SDS011;800;48.824;9.346;2024-01-30T11:59:36;20.03;;;11.67;;
1613;SDS011;800;48.824;9.346;2024-01-30T12:02:02;19.00;;;12.23;;
1613;SDS011;800;48.824;9.346;2024-01-30T12:04:28;21.30;;;12.67;;
1613;SDS011;800;48.824;9.346;2024-01-30T12:06:54;16.67;;;10.17;;
1613;SDS011;800;48.824;9.346;2024-01-30T12:09:20;11.50;;;8.33;;
1613;SDS011;800;48.824;9.346;2024-01-30T12:11:47;9.37;;;8.47;;
1613;SDS011;800;48.824;9.346;2024-01-30T12:14:13;23.63;;;12.03;;
1613;SDS011;800;48.824;9.346;2024-01-30T12:16:40;14.57;;;10.03;;
1613;SDS011;800;48.824;9.346;2024-01-30T12:19:06;12.50;;;9.50;;
1613;SDS011;800;48.824;9.346;2024-01-30T12:21:33;14.27;;;9.50;;
1613;SDS011;800;48.824;9.346;2024-01-30T12:23:59;18.03;;;9.53;;
1613;SDS011;800;48.824;9.346;2024-01-30T12:26:25;14.87;;;12.07;;
1613;SDS011;800;48.824;9.346;2024-01-30T12:28:54;15.27;;;10.87;;
1613;SDS011;800;48.824;9.346;2024-01-30T12:31:27;12.23;;;9.03;;
1613;SDS011;800;48.824;9.346;2024-01-30T12:33:53;13.10;;;9.60;;
1613;SDS011;800;48.824;9.346;2024-01-30T12:36:21;10.83;;;9.13;;
1613;SDS011;800;48.824;9.346;2024-01-30T12:38:47;8.83;;;8.00;;
1613;SDS011;800;48.824;9.346;2024-01-30T12:41:13;11.77;;;9.00;;
1613;SDS011;800;48.824;9.346;2024-01-30T12:43:38;13.43;;;8.50;;
1613;SDS011;800;48.824;9.346;2024-01-30T12:46:04;16.30;;;9.10;;
1613;SDS011;800;48.824;9.346;2024-01-30T12:48:30;10.80;;;8.43;;
1613;SDS011;800;48.824;9.346;2024-01-30T12:50:56;10.27;;;9.10;;
1613;SDS011;800;48.824;9.346;2024-01-30T12:53:22;13.43;;;9.27;;
1613;SDS011;800;48.824;9.346;2024-01-30T12:55:47;12.07;;;8.70;;
1613;SDS011;800;48.824;9.346;2024-01-30T12:58:14;8.87;;;6.63;;
1613;SDS011;800;48.824;9.346;2024-01-30T13:00:40;12.10;;;7.37;;
1613;SDS011;800;48.824;9.346;2024-01-30T13:03:08;9.33;;;6.80;;
1613;SDS011;800;48.824;9.346;2024-01-30T13:05:34;10.33;;;7.00;;
1613;SDS011;800;48.824;9.346;2024-01-30T13:08:00;14.50;;;9.80;;
1613;SDS011;800;48.824;9.346;2024-01-30T13:10:26;14.33;;;10.07;;
1613;SDS011;800;48.824;9.346;2024-01-30T13:12:52;14.03;;;9.83;;
1613;SDS011;800;48.824;9.346;2024-01-30T13:15:18;12.00;;;7.83;;
1613;SDS011;800;48.824;9.346;2024-01-30T13:17:43;11.57;;;8.37;;
1613;SDS011;800;48.824;9.346;2024-01-30T13:20:11;9.57;;;8.57;;
1613;SDS011;800;48.824;9.346;2024-01-30T13:22:39;10.50;;;8.33;;
1613;SDS011;800;48.824;9.346;2024-01-30T13:25:05;15.43;;;9.87;;
1613;SDS011;800;48.824;9.346;2024-01-30T13:27:32;12.27;;;8.33;;
1613;SDS011;800;48.824;9.346;2024-01-30T13:29:57;11.57;;;8.80;;
1613;SDS011;800;48.824;9.346;2024-01-30T13:32:23;13.33;;;9.10;;
1613;SDS011;800;48.824;9.346;2024-01-30T13:34:48;10.77;;;9.67;;
1613;SDS011;800;48.824;9.346;2024-01-30T13:37:14;10.47;;;9.37;;
1613;SDS011;800;48.824;9.346;2024-01-30T13:39:39;11.83;;;9.90;;
1613;SDS011;800;48.824;9.346;2024-01-30T13:42:05;11.00;;;9.80;;
1613;SDS011;800;48.824;9.346;2024-01-30T13:44:30;11.17;;;8.93;;
1613;SDS011;800;48.824;9.346;2024-01-30T13:46:56;11.03;;;9.93;;
1613;SDS011;800;48.824;9.346;2024-01-30T13:49:21;10.17;;;8.60;;
1613;SDS011;800;48.824;9.346;2024-01-30T13:51:47;10.00;;;8.47;;
1613;SDS011;800;48.824;9.346;2024-01-30T13:54:12;13.23;;;9.73;;
1613;SDS011;800;48.824;9.346;2024-01-30T13:56:40;12.97;;;10.70;;
1613;SDS011;800;48.824;9.346;2024-01-30T13:59:06;15.50;;;10.17;;
1613;SDS011;800;48.824;9.346;2024-01-30T14:01:32;10.93;;;9.47;;
1613;SDS011;800;48.824;9.346;2024-01-30T14:03:57;11.63;;;9.70;;
1613;SDS011;800;48.824;9.346;2024-01-30T14:06:23;14.83;;;9.70;;
1613;SDS011;800;48.824;9.346;2024-01-30T14:08:49;12.80;;;9.50;;
1613;SDS011;800;48.824;9.346;2024-01-30T14:11:14;10.67;;;9.57;;
1613;SDS011;800;48.824;9.346;2024-01-30T14:13:40;15.10;;;9.80;;
1613;SDS011;800;48.824;9.346;2024-01-30T14:16:06;13.23;;;9.90;;
1613;SDS011;800;48.824;9.346;2024-01-30T14:18:32;15.70;;;10.87;;
1613;SDS011;800;48.824;9.346;2024-01-30T14:20:57;10.70;;;9.03;;
1613;SDS011;800;48.824;9.346;2024-01-30T14:23:23;11.87;;;8.77;;
1613;SDS011;800;48.824;9.346;2024-01-30T14:25:49;11.63;;;8.30;;
1613;SDS011;800;48.824;9.346;2024-01-30T14:28:16;15.27;;;8.30;;
1613;SDS011;800;48.824;9.346;2024-01-30T14:30:42;14.47;;;8.37;;
1613;SDS011;800;48.824;9.346;2024-01-30T14:33:07;8.90;;;8.00;;
1613;SDS011;800;48.824;9.346;2024-01-30T14:35:33;13.30;;;8.27;;
1613;SDS011;800;48.824;9.346;2024-01-30T14:37:58;14.53;;;7.67;;
1613;SDS011;800;48.824;9.346;2024-01-30T14:40:24;13.00;;;9.10;;
1613;SDS011;800;48.824;9.346;2024-01-30T14:42:50;8.63;;;7.40;;
1613;SDS011;800;48.824;9.346;2024-01-30T14:45:15;11.63;;;9.10;;
1613;SDS011;800;48.824;9.346;2024-01-30T14:47:41;11.20;;;9.60;;
1613;SDS011;800;48.824;9.346;2024-01-30T14:50:07;11.43;;;9.80;;
1613;SDS011;800;48.824;9.346;2024-01-30T14:52:33;11.33;;;9.93;;
1613;SDS011;800;48.824;9.346;2024-01-30T14:54:59;13.57;;;10.30;;
1613;SDS011;800;48.824;9.346;2024-01-30T14:57:25;10.83;;;9.60;;
1613;SDS011;800;48.824;9.346;2024-01-30T14:59:50;15.10;;;10.93;;
1613;SDS011;800;48.824;9.346;2024-01-30T15:02:16;14.00;;;12.13;;
1613;SDS011;800;48.824;9.346;2024-01-30T15:04:42;17.70;;;13.80;;
1613;SDS011;800;48.824;9.346;2024-01-30T15:07:07;16.10;;;12.20;;
1613;SDS011;800;48.824;9.346;2024-01-30T15:09:33;13.90;;;11.33;;
1613;SDS011;800;48.824;9.346;2024-01-30T15:11:59;15.53;;;10.90;;
1613;SDS011;800;48.824;9.346;2024-01-30T15:14:25;18.73;;;11.83;;
1613;SDS011;800;48.824;9.346;2024-01-30T15:16:50;12.40;;;10.90;;
1613;SDS011;800;48.824;9.346;2024-01-30T15:19:16;11.57;;;10.37;;